Time;durP1;ratioP1;P1;durP2;ratioP2;P2;SDS_P1;SDS_P2;PMS_P1;PMS_P2;Temp;Humidity;BMP_temperature;BMP_pressure;BME280_temperature;BME280_humidity;BME280_pressure;Samples;Min_cycle;Max_cycle;Signal;HPM_P1;HPM_P2
2021/08/25 00:01:08;;;;;;;13.95;11.65;;;;;;;;;;5027069;28;20405;-67
2021/08/25 00:03:34;;;;;;;14.40;11.15;;;;;;;;;;5012206;28;20045;-66
2021/08/25 00:06:00;;;;;;;13.95;10.85;;;;;;;;;;5019812;28;20057;-66
2021/08/25 00:08:26;;;;;;;13.85;12.13;;;;;;;;;;5010985;28;20465;-67
2021/08/25 00:10:52;;;;;;;14.20;12.30;;;;;;;;;;5021513;28;20034;-67
2021/08/25 00:13:18;;;;;;;13.38;11.15;;;;;;;;;;5018267;28;20037;-66
2021/08/25 00:15:45;;;;;;;16.38;13.15;;;;;;;;;;5017233;28;20270;-66
2021/08/25 00:18:11;;;;;;;13.25;11.88;;;;;;;;;;5018550;28;20068;-67
2021/08/25 00:20:38;;;;;;;14.93;13.38;;;;;;;;;;5031574;28;20049;-67
2021/08/25 00:23:04;;;;;;;15.60;12.82;;;;;;;;;;5034271;28;20033;-67
2021/08/25 00:25:30;;;;;;;13.13;11.82;;;;;;;;;;5042259;28;20178;-67
2021/08/25 00:27:57;;;;;;;15.23;12.15;;;;;;;;;;5031129;28;20114;-67
2021/08/25 00:30:23;;;;;;;19.55;14.85;;;;;;;;;;5040999;28;20034;-67
2021/08/25 00:32:49;;;;;;;17.50;14.25;;;;;;;;;;5017443;28;20045;-67
2021/08/25 00:35:15;;;;;;;15.23;13.15;;;;;;;;;;5043562;28;20095;-67
2021/08/25 00:37:41;;;;;;;15.23;12.10;;;;;;;;;;5020539;28;20143;-67
2021/08/25 00:40:08;;;;;;;16.88;15.18;;;;;;;;;;5032231;28;20037;-67
2021/08/25 00:42:34;;;;;;;16.45;14.18;;;;;;;;;;5015867;28;20049;-67
2021/08/25 00:45:02;;;;;;;20.38;16.27;;;;;;;;;;5017389;28;20055;-67
2021/08/25 00:47:28;;;;;;;17.38;14.48;;;;;;;;;;5041150;28;20056;-67
2021/08/25 00:49:54;;;;;;;18.38;15.60;;;;;;;;;;5035816;28;20052;-67
2021/08/25 00:52:20;;;;;;;19.23;17.13;;;;;;;;;;5040677;28;20041;-67
2021/08/25 00:54:46;;;;;;;19.10;15.80;;;;;;;;;;5028911;28;20048;-67
2021/08/25 00:57:12;;;;;;;20.65;16.52;;;;;;;;;;5042493;28;20065;-67
2021/08/25 00:59:39;;;;;;;19.42;17.40;;;;;;;;;;5014361;28;20049;-67
2021/08/25 01:02:12;;;;;;;20.63;17.17;;;;;;;;;;5037397;28;20041;-67
2021/08/25 01:04:41;;;;;;;20.63;17.50;;;;;;;;;;5029158;28;20584;-67
2021/08/25 01:07:08;;;;;;;17.58;15.77;;;;;;;;;;5038049;28;20279;-67
2021/08/25 01:09:37;;;;;;;18.63;16.58;;;;;;;;;;5032782;28;20067;-67
2021/08/25 01:12:03;;;;;;;21.50;19.20;;;;;;;;;;5040989;28;20120;-67
2021/08/25 01:14:29;;;;;;;20.92;17.30;;;;;;;;;;5038034;28;20418;-67
2021/08/25 01:16:56;;;;;;;20.30;17.42;;;;;;;;;;5037365;28;20589;-67
2021/08/25 01:19:24;;;;;;;21.15;18.23;;;;;;;;;;5018843;28;20080;-67
2021/08/25 01:21:50;;;;;;;18.70;16.63;;;;;;;;;;5035763;28;20115;-67
2021/08/25 01:24:18;;;;;;;22.30;19.98;;;;;;;;;;5038370;28;20033;-67
2021/08/25 01:26:45;;;;;;;20.52;18.15;;;;;;;;;;5039015;28;20543;-66
2021/08/25 01:29:28;;;;;;;20.40;17.77;;;;;;;;;;5041284;28;20045;-66
2021/08/25 01:31:54;;;;;;;21.60;18.20;;;;;;;;;;5029292;28;20048;-67
2021/08/25 01:34:21;;;;;;;21.52;17.60;;;;;;;;;;5036781;28;20096;-67
2021/08/25 01:36:54;;;;;;;19.88;17.45;;;;;;;;;;5030248;28;20064;-67
2021/08/25 01:39:20;;;;;;;18.15;16.25;;;;;;;;;;5039406;28;20120;-66
2021/08/25 01:41:50;;;;;;;18.42;16.38;;;;;;;;;;5030789;28;20034;-66
2021/08/25 01:44:16;;;;;;;20.23;16.27;;;;;;;;;;5043059;28;20033;-66
2021/08/25 01:46:43;;;;;;;20.02;17.23;;;;;;;;;;5040477;28;20064;-66
2021/08/25 01:49:10;;;;;;;19.83;17.73;;;;;;;;;;5022908;28;20064;-66
2021/08/25 01:51:37;;;;;;;18.27;15.73;;;;;;;;;;5037812;28;20128;-66
2021/08/25 01:54:03;;;;;;;23.20;17.90;;;;;;;;;;5024031;28;20041;-66
2021/08/25 01:56:29;;;;;;;19.23;17.20;;;;;;;;;;5036630;28;20041;-66
2021/08/25 01:58:57;;;;;;;16.92;15.23;;;;;;;;;;5044296;28;20489;-66
2021/08/25 02:01:23;;;;;;;17.38;15.57;;;;;;;;;;5040717;28;20124;-67
2021/08/25 02:03:49;;;;;;;24.73;21.20;;;;;;;;;;5045786;28;20052;-67
2021/08/25 02:06:15;;;;;;;24.33;21.05;;;;;;;;;;5039308;28;20047;-67
2021/08/25 02:08:41;;;;;;;24.83;22.00;;;;;;;;;;5038281;28;20136;-66
2021/08/25 02:11:07;;;;;;;24.95;22.15;;;;;;;;;;5027718;28;20049;-66
2021/08/25 02:13:33;;;;;;;26.10;21.40;;;;;;;;;;5036494;28;20063;-66
2021/08/25 02:15:59;;;;;;;22.33;19.08;;;;;;;;;;5039636;28;20215;-67
2021/08/25 02:18:25;;;;;;;22.17;19.83;;;;;;;;;;5023430;28;20067;-67
2021/08/25 02:20:51;;;;;;;23.48;21.02;;;;;;;;;;5040402;28;20045;-66
2021/08/25 02:23:17;;;;;;;23.00;20.58;;;;;;;;;;5035141;28;20037;-66
2021/08/25 02:25:44;;;;;;;23.92;21.35;;;;;;;;;;5035916;28;20356;-66
2021/08/25 02:28:10;;;;;;;24.25;21.65;;;;;;;;;;5039550;28;20127;-66
2021/08/25 02:30:36;;;;;;;26.58;22.85;;;;;;;;;;5041874;28;20041;-66
2021/08/25 02:33:03;;;;;;;24.63;20.42;;;;;;;;;;5032844;28;20033;-66
2021/08/25 02:35:29;;;;;;;26.42;21.95;;;;;;;;;;5039546;28;20103;-66
2021/08/25 02:37:55;;;;;;;25.85;22.42;;;;;;;;;;5036278;28;20722;-66
2021/08/25 02:40:21;;;;;;;27.55;24.10;;;;;;;;;;5043834;28;20450;-66
2021/08/25 02:42:47;;;;;;;23.65;21.20;;;;;;;;;;5034849;28;20029;-67
2021/08/25 02:45:14;;;;;;;23.30;21.00;;;;;;;;;;5043006;28;20556;-66
2021/08/25 02:47:40;;;;;;;30.73;27.35;;;;;;;;;;5043328;28;20103;-66
2021/08/25 02:50:07;;;;;;;36.00;28.65;;;;;;;;;;5035318;28;20234;-66
2021/08/25 02:52:33;;;;;;;26.92;24.02;;;;;;;;;;5039832;28;20057;-66
2021/08/25 02:54:59;;;;;;;24.77;22.02;;;;;;;;;;5033552;28;20045;-66
2021/08/25 02:57:25;;;;;;;26.88;21.17;;;;;;;;;;5042687;28;20115;-66
2021/08/25 02:59:51;;;;;;;24.73;21.65;;;;;;;;;;5038969;28;20033;-66
2021/08/25 03:02:17;;;;;;;26.92;22.95;;;;;;;;;;5041480;28;20048;-66
2021/08/25 03:04:43;;;;;;;25.95;22.45;;;;;;;;;;5019162;28;20072;-66
2021/08/25 03:07:09;;;;;;;27.95;22.80;;;;;;;;;;5040045;28;20040;-66
2021/08/25 03:09:35;;;;;;;24.70;22.02;;;;;;;;;;5017549;28;20041;-66
2021/08/25 03:12:02;;;;;;;24.30;21.60;;;;;;;;;;5039857;28;20124;-66
2021/08/25 03:14:28;;;;;;;23.33;20.90;;;;;;;;;;5033826;28;20052;-66
2021/08/25 03:16:54;;;;;;;20.42;18.35;;;;;;;;;;5036448;28;20493;-66
2021/08/25 03:19:20;;;;;;;21.52;19.25;;;;;;;;;;5035444;28;20057;-67
2021/08/25 03:21:46;;;;;;;18.70;16.80;;;;;;;;;;5022686;28;20460;-66
2021/08/25 03:24:12;;;;;;;18.80;16.80;;;;;;;;;;5016374;28;20072;-67
2021/08/25 03:26:38;;;;;;;18.20;16.30;;;;;;;;;;5041158;28;20090;-67
2021/08/25 03:29:04;;;;;;;17.52;15.75;;;;;;;;;;5036521;28;20170;-67
2021/08/25 03:31:30;;;;;;;18.25;16.33;;;;;;;;;;5019624;28;20052;-67
2021/08/25 03:33:57;;;;;;;21.75;15.73;;;;;;;;;;5038805;28;20043;-66
2021/08/25 03:36:23;;;;;;;19.20;16.42;;;;;;;;;;5031989;28;20076;-66
2021/08/25 03:38:49;;;;;;;55.47;19.00;;;;;;;;;;5039980;28;20086;-66
2021/08/25 03:41:15;;;;;;;77.85;19.42;;;;;;;;;;5035111;28;20033;-66
2021/08/25 03:43:41;;;;;;;68.63;21.55;;;;;;;;;;5022093;28;20045;-66
2021/08/25 03:46:07;;;;;;;22.38;17.25;;;;;;;;;;5030508;28;20041;-66
2021/08/25 03:48:33;;;;;;;21.08;18.23;;;;;;;;;;5036200;28;20519;-66
2021/08/25 03:51:00;;;;;;;23.67;17.85;;;;;;;;;;5015732;28;20041;-66
2021/08/25 03:53:26;;;;;;;40.90;18.85;;;;;;;;;;5039572;28;20065;-66
2021/08/25 03:55:52;;;;;;;24.27;17.52;;;;;;;;;;5032183;28;20079;-66
2021/08/25 03:58:18;;;;;;;22.38;18.15;;;;;;;;;;5038775;28;20041;-66
2021/08/25 04:00:44;;;;;;;27.83;18.20;;;;;;;;;;5037375;28;20092;-66
2021/08/25 04:03:10;;;;;;;63.72;20.05;;;;;;;;;;5038522;28;20040;-66
2021/08/25 04:05:36;;;;;;;28.15;19.42;;;;;;;;;;5036737;28;20443;-66
2021/08/25 04:08:03;;;;;;;59.45;19.77;;;;;;;;;;5032409;28;20131;-66
2021/08/25 04:10:29;;;;;;;25.50;18.27;;;;;;;;;;5038859;28;20255;-66
2021/08/25 04:12:55;;;;;;;31.15;18.02;;;;;;;;;;5030957;28;20353;-66
2021/08/25 04:15:21;;;;;;;17.40;15.68;;;;;;;;;;5021422;28;20037;-66
2021/08/25 04:17:47;;;;;;;41.28;19.33;;;;;;;;;;5033862;28;20051;-66
2021/08/25 04:20:13;;;;;;;19.88;16.88;;;;;;;;;;5041970;28;20050;-66
2021/08/25 04:22:39;;;;;;;41.47;18.10;;;;;;;;;;5029480;28;20841;-66
2021/08/25 04:25:06;;;;;;;17.73;15.65;;;;;;;;;;5037354;28;20055;-66
2021/08/25 04:27:32;;;;;;;43.55;17.38;;;;;;;;;;5033853;28;20535;-66
2021/08/25 04:29:58;;;;;;;35.72;16.50;;;;;;;;;;5037604;28;20526;-66
2021/08/25 04:32:24;;;;;;;37.33;18.92;;;;;;;;;;5016374;28;20357;-66
2021/08/25 04:34:50;;;;;;;29.75;14.38;;;;;;;;;;5025014;28;20079;-66
2021/08/25 04:37:16;;;;;;;30.17;15.23;;;;;;;;;;5034125;28;20415;-67
2021/08/25 04:39:42;;;;;;;32.10;16.02;;;;;;;;;;5033615;28;20379;-66
2021/08/25 04:42:08;;;;;;;17.02;14.63;;;;;;;;;;5040399;28;20541;-66
2021/08/25 04:44:34;;;;;;;16.27;14.68;;;;;;;;;;5032256;28;20413;-67
2021/08/25 04:47:00;;;;;;;15.88;14.18;;;;;;;;;;5041092;28;20124;-67
2021/08/25 04:49:26;;;;;;;25.33;14.30;;;;;;;;;;5028914;28;20128;-67
2021/08/25 04:51:52;;;;;;;18.15;13.52;;;;;;;;;;5035873;28;20072;-66
2021/08/25 04:54:18;;;;;;;40.83;15.77;;;;;;;;;;5014335;28;20064;-66
2021/08/25 04:56:45;;;;;;;29.13;14.95;;;;;;;;;;5020281;28;20045;-66
2021/08/25 04:59:11;;;;;;;15.18;13.05;;;;;;;;;;5030657;28;20040;-66
2021/08/25 05:01:37;;;;;;;32.95;15.35;;;;;;;;;;5038403;28;20049;-66
2021/08/25 05:04:03;;;;;;;17.10;13.27;;;;;;;;;;5017179;28;20037;-66
2021/08/25 05:06:29;;;;;;;24.65;14.35;;;;;;;;;;5040512;28;20041;-66
2021/08/25 05:08:55;;;;;;;15.40;13.43;;;;;;;;;;5031977;28;20033;-66
2021/08/25 05:11:21;;;;;;;20.15;13.50;;;;;;;;;;5035878;28;20038;-66
2021/08/25 05:13:47;;;;;;;37.47;14.85;;;;;;;;;;5034205;28;20076;-66
2021/08/25 05:16:13;;;;;;;15.40;13.55;;;;;;;;;;5023555;28;20037;-66
2021/08/25 05:18:40;;;;;;;15.68;14.00;;;;;;;;;;5034204;28;20033;-66
2021/08/25 05:21:06;;;;;;;16.17;13.95;;;;;;;;;;5038643;28;20056;-66
2021/08/25 05:23:32;;;;;;;18.83;11.15;;;;;;;;;;5040636;28;20458;-66
2021/08/25 05:25:58;;;;;;;50.42;13.00;;;;;;;;;;5035010;28;20064;-66
2021/08/25 05:28:25;;;;;;;26.42;11.75;;;;;;;;;;5039164;28;20124;-66
2021/08/25 05:30:51;;;;;;;17.05;12.40;;;;;;;;;;5040238;28;20376;-66
2021/08/25 05:33:17;;;;;;;14.50;12.68;;;;;;;;;;5039454;28;20041;-66
2021/08/25 05:35:43;;;;;;;17.23;10.88;;;;;;;;;;5035746;28;20120;-66
2021/08/25 05:38:09;;;;;;;29.83;11.63;;;;;;;;;;5038153;28;20046;-66
2021/08/25 05:40:35;;;;;;;44.85;12.27;;;;;;;;;;5035374;28;20041;-66
2021/08/25 05:43:01;;;;;;;12.95;11.55;;;;;;;;;;5041719;28;20112;-66
2021/08/25 05:45:27;;;;;;;26.60;12.68;;;;;;;;;;5032594;28;20036;-67
2021/08/25 05:47:57;;;;;;;12.55;11.35;;;;;;;;;;5044753;28;20045;-67
2021/08/25 05:50:23;;;;;;;26.80;12.07;;;;;;;;;;5034332;28;20045;-67
2021/08/25 05:52:49;;;;;;;24.63;11.52;;;;;;;;;;5040498;28;20044;-67
2021/08/25 05:55:15;;;;;;;26.33;10.75;;;;;;;;;;5014108;28;20075;-67
2021/08/25 05:57:47;;;;;;;11.95;9.13;;;;;;;;;;5038313;28;20045;-67
2021/08/25 06:00:14;;;;;;;20.92;9.90;;;;;;;;;;5038763;28;20033;-67
2021/08/25 06:02:41;;;;;;;14.38;10.25;;;;;;;;;;5038001;28;20037;-67
2021/08/25 06:05:07;;;;;;;13.55;9.60;;;;;;;;;;5043716;28;20033;-67
2021/08/25 06:07:33;;;;;;;15.77;10.40;;;;;;;;;;5039349;28;20056;-66
2021/08/25 06:10:00;;;;;;;12.70;11.27;;;;;;;;;;5040226;28;20037;-66
2021/08/25 06:12:26;;;;;;;11.10;10.18;;;;;;;;;;5013642;28;20037;-66
2021/08/25 06:14:52;;;;;;;17.30;10.93;;;;;;;;;;5040074;28;20045;-66
2021/08/25 06:17:18;;;;;;;17.35;10.38;;;;;;;;;;5041872;28;20041;-66
2021/08/25 06:19:44;;;;;;;16.90;10.32;;;;;;;;;;5040117;28;20106;-66
2021/08/25 06:22:10;;;;;;;10.95;9.85;;;;;;;;;;5033576;28;20516;-66
2021/08/25 06:24:37;;;;;;;11.52;10.13;;;;;;;;;;5019420;28;20120;-66
2021/08/25 06:27:03;;;;;;;10.68;9.75;;;;;;;;;;5033328;28;20033;-66
2021/08/25 06:29:29;;;;;;;10.23;9.43;;;;;;;;;;5040195;28;20088;-66
2021/08/25 06:31:55;;;;;;;10.10;9.10;;;;;;;;;;5036437;28;20056;-66
2021/08/25 06:34:21;;;;;;;8.85;8.05;;;;;;;;;;5038336;28;20114;-66
2021/08/25 06:36:47;;;;;;;9.55;8.65;;;;;;;;;;5036612;28;20057;-66
2021/08/25 06:39:13;;;;;;;8.63;7.93;;;;;;;;;;5019914;28;20049;-66
2021/08/25 06:41:39;;;;;;;8.43;7.72;;;;;;;;;;5040616;28;20120;-66
2021/08/25 06:44:06;;;;;;;8.05;7.45;;;;;;;;;;5018438;28;20052;-67
2021/08/25 06:46:32;;;;;;;9.00;8.10;;;;;;;;;;5047620;28;20060;-67
2021/08/25 06:48:58;;;;;;;8.10;7.15;;;;;;;;;;5017641;28;20049;-67
2021/08/25 06:51:24;;;;;;;7.82;7.13;;;;;;;;;;5042196;28;20409;-67
2021/08/25 06:53:50;;;;;;;9.85;9.07;;;;;;;;;;5037348;28;20048;-68
2021/08/25 06:56:16;;;;;;;10.40;9.20;;;;;;;;;;5024210;28;20236;-68
2021/08/25 06:58:42;;;;;;;9.50;7.75;;;;;;;;;;5017323;28;20057;-68
2021/08/25 07:01:08;;;;;;;7.80;7.00;;;;;;;;;;5044744;28;20029;-68
2021/08/25 07:03:37;;;;;;;7.57;5.90;;;;;;;;;;5036386;28;20048;-69
2021/08/25 07:06:03;;;;;;;7.75;6.03;;;;;;;;;;5047221;28;20037;-68
2021/08/25 07:08:29;;;;;;;6.65;5.45;;;;;;;;;;5035128;28;20036;-67
2021/08/25 07:10:55;;;;;;;5.75;5.22;;;;;;;;;;5021191;28;20049;-67
2021/08/25 07:13:21;;;;;;;8.35;5.47;;;;;;;;;;5038538;28;20124;-67
2021/08/25 07:15:47;;;;;;;7.20;5.32;;;;;;;;;;5021437;28;20049;-67
2021/08/25 07:18:13;;;;;;;4.50;4.10;;;;;;;;;;5042327;28;20094;-67
2021/08/25 07:20:40;;;;;;;8.02;3.95;;;;;;;;;;5039446;28;20084;-68
2021/08/25 07:23:06;;;;;;;4.75;4.18;;;;;;;;;;5037742;28;20064;-68
2021/08/25 07:25:32;;;;;;;6.88;3.97;;;;;;;;;;5038330;28;20049;-68
2021/08/25 07:27:58;;;;;;;5.18;4.22;;;;;;;;;;5021025;28;20053;-68
2021/08/25 07:30:24;;;;;;;7.45;4.07;;;;;;;;;;5034755;28;20051;-68
2021/08/25 07:32:50;;;;;;;4.88;2.72;;;;;;;;;;5024206;28;20049;-68
2021/08/25 07:35:16;;;;;;;5.63;2.40;;;;;;;;;;5034464;28;20062;-68
2021/08/25 07:37:42;;;;;;;4.57;2.00;;;;;;;;;;5018463;28;20061;-68
2021/08/25 07:40:09;;;;;;;6.45;2.50;;;;;;;;;;5030767;28;20033;-68
2021/08/25 07:42:35;;;;;;;5.18;2.05;;;;;;;;;;5037669;28;20119;-67
2021/08/25 07:45:01;;;;;;;3.88;1.90;;;;;;;;;;5034551;28;20029;-68
2021/08/25 07:47:27;;;;;;;4.85;2.22;;;;;;;;;;5020473;28;20044;-68
2021/08/25 07:49:54;;;;;;;5.78;2.30;;;;;;;;;;5036255;28;20041;-68
2021/08/25 07:52:20;;;;;;;6.65;2.47;;;;;;;;;;5042776;28;20480;-68
2021/08/25 07:54:46;;;;;;;5.28;2.40;;;;;;;;;;5037252;28;20043;-69
2021/08/25 07:57:12;;;;;;;6.65;4.05;;;;;;;;;;5039379;28;20037;-69
2021/08/25 07:59:38;;;;;;;5.13;3.30;;;;;;;;;;5043025;28;20124;-68
2021/08/25 08:02:04;;;;;;;5.20;2.85;;;;;;;;;;5035912;28;20057;-69
2021/08/25 08:04:30;;;;;;;4.57;2.35;;;;;;;;;;5020978;28;20053;-69
2021/08/25 08:06:56;;;;;;;4.50;2.47;;;;;;;;;;5035703;28;20470;-69
2021/08/25 08:09:22;;;;;;;4.60;2.53;;;;;;;;;;5038434;28;20497;-69
2021/08/25 08:11:48;;;;;;;5.82;2.80;;;;;;;;;;5013179;28;20053;-69
2021/08/25 08:14:14;;;;;;;4.95;2.25;;;;;;;;;;5039998;28;20029;-69
2021/08/25 08:16:44;;;;;;;4.95;2.72;;;;;;;;;;5033016;28;20092;-70
2021/08/25 08:19:19;;;;;;;4.25;2.75;;;;;;;;;;5036919;28;20045;-70
2021/08/25 08:21:45;;;;;;;4.75;2.65;;;;;;;;;;5029195;28;20041;-69
2021/08/25 08:24:12;;;;;;;4.28;2.75;;;;;;;;;;5038703;28;20175;-69
2021/08/25 08:26:38;;;;;;;2.70;1.90;;;;;;;;;;5032900;28;20493;-70
2021/08/25 08:29:04;;;;;;;3.38;1.17;;;;;;;;;;5023022;28;20045;-70
2021/08/25 08:31:31;;;;;;;6.82;2.08;;;;;;;;;;5032738;28;20049;-70
2021/08/25 08:33:58;;;;;;;3.55;1.50;;;;;;;;;;5018249;28;20052;-70
2021/08/25 08:36:24;;;;;;;3.42;1.85;;;;;;;;;;5016346;28;20144;-70
2021/08/25 08:38:50;;;;;;;3.25;1.50;;;;;;;;;;5035644;28;20029;-70
2021/08/25 08:41:16;;;;;;;5.75;1.52;;;;;;;;;;5040410;28;20086;-70
2021/08/25 08:43:43;;;;;;;2.22;1.45;;;;;;;;;;5032091;28;20060;-70
2021/08/25 08:46:12;;;;;;;2.97;1.23;;;;;;;;;;5039875;28;20045;-70
2021/08/25 08:48:39;;;;;;;3.30;1.10;;;;;;;;;;5028711;28;20033;-70
2021/08/25 08:51:05;;;;;;;4.05;1.50;;;;;;;;;;5033285;28;20029;-70
2021/08/25 08:53:31;;;;;;;4.22;1.13;;;;;;;;;;5035153;28;20030;-70
2021/08/25 08:55:57;;;;;;;2.75;1.23;;;;;;;;;;5044282;28;20043;-70
2021/08/25 08:58:23;;;;;;;3.90;1.02;;;;;;;;;;5033150;28;20558;-70
2021/08/25 09:00:49;;;;;;;2.80;1.10;;;;;;;;;;5026492;28;20119;-70
2021/08/25 09:03:23;;;;;;;2.47;0.90;;;;;;;;;;5035202;28;20068;-70
2021/08/25 09:05:59;;;;;;;3.30;1.10;;;;;;;;;;5041721;28;20126;-70
2021/08/25 09:08:29;;;;;;;3.30;1.10;;;;;;;;;;5035239;28;20049;-70
2021/08/25 09:11:22;;;;;;;2.85;1.20;;;;;;;;;;5022813;28;20061;-70
2021/08/25 09:13:49;;;;;;;2.50;1.50;;;;;;;;;;5031519;28;20137;-70
2021/08/25 09:16:26;;;;;;;3.95;1.70;;;;;;;;;;5041799;28;20499;-70
2021/08/25 09:19:02;;;;;;;2.50;1.20;;;;;;;;;;5016303;28;20366;-70
2021/08/25 09:21:32;;;;;;;3.25;1.23;;;;;;;;;;5026492;28;20049;-70
2021/08/25 09:23:58;;;;;;;4.40;1.80;;;;;;;;;;5031662;28;20148;-70
2021/08/25 09:26:24;;;;;;;2.97;1.38;;;;;;;;;;5042131;28;20040;-70
2021/08/25 09:28:51;;;;;;;3.15;1.60;;;;;;;;;;5033478;28;20036;-70
2021/08/25 09:31:17;;;;;;;4.32;1.60;;;;;;;;;;5028523;28;20110;-70
2021/08/25 09:33:44;;;;;;;2.33;1.33;;;;;;;;;;5020951;28;20061;-70
2021/08/25 09:36:11;;;;;;;2.60;1.40;;;;;;;;;;5021784;28;20156;-70
2021/08/25 09:38:38;;;;;;;2.30;1.30;;;;;;;;;;5035585;28;20037;-68
2021/08/25 09:41:12;;;;;;;3.20;1.55;;;;;;;;;;5029067;28;20080;-69
2021/08/25 09:43:42;;;;;;;4.18;1.65;;;;;;;;;;5041846;28;20519;-69
2021/08/25 09:46:13;;;;;;;2.42;1.00;;;;;;;;;;5037471;28;20029;-70
2021/08/25 09:48:40;;;;;;;3.97;0.90;;;;;;;;;;5037183;28;20041;-70
2021/08/25 09:51:07;;;;;;;1.83;0.85;;;;;;;;;;5020875;28;20049;-69
2021/08/25 09:53:33;;;;;;;2.38;0.80;;;;;;;;;;5022194;28;20129;-70
2021/08/25 09:55:59;;;;;;;2.83;0.80;;;;;;;;;;5015826;28;20040;-70
2021/08/25 09:58:25;;;;;;;3.40;0.90;;;;;;;;;;5040447;28;20045;-70
2021/08/25 10:00:55;;;;;;;1.98;1.10;;;;;;;;;;5020808;28;20341;-69
2021/08/25 10:03:22;;;;;;;2.20;0.70;;;;;;;;;;5042084;28;20078;-69
2021/08/25 10:05:49;;;;;;;1.73;0.70;;;;;;;;;;5036548;28;20040;-70
2021/08/25 10:08:16;;;;;;;2.33;0.73;;;;;;;;;;5021151;28;20088;-70
2021/08/25 10:10:43;;;;;;;3.00;0.73;;;;;;;;;;5017143;28;20057;-71
2021/08/25 10:13:09;;;;;;;1.90;0.60;;;;;;;;;;5020413;28;20049;-70
2021/08/25 10:15:40;;;;;;;1.60;0.70;;;;;;;;;;5018337;28;20501;-70
2021/08/25 10:18:26;;;;;;;1.58;0.60;;;;;;;;;;5040703;28;20131;-70
2021/08/25 10:20:53;;;;;;;2.08;0.52;;;;;;;;;;5031462;28;20555;-70
2021/08/25 10:23:19;;;;;;;1.00;0.40;;;;;;;;;;5040633;28;20037;-70
2021/08/25 10:26:05;;;;;;;1.00;0.50;;;;;;;;;;5035415;28;20510;-68
2021/08/25 10:28:51;;;;;;;1.00;0.50;;;;;;;;;;5039104;28;20049;-68
2021/08/25 10:31:17;;;;;;;2.53;0.70;;;;;;;;;;5035256;28;20030;-67
2021/08/25 10:34:03;;;;;;;2.70;0.43;;;;;;;;;;5040759;28;20437;-68
2021/08/25 10:36:29;;;;;;;1.00;0.45;;;;;;;;;;5038040;28;20053;-68
2021/08/25 10:38:55;;;;;;;1.23;0.38;;;;;;;;;;5038488;28;20409;-68
2021/08/25 10:41:22;;;;;;;0.95;0.32;;;;;;;;;;5036088;28;20063;-68
2021/08/25 10:43:49;;;;;;;0.90;0.40;;;;;;;;;;5040008;28;20041;-68
2021/08/25 10:46:17;;;;;;;1.00;0.40;;;;;;;;;;5036952;28;20131;-68
2021/08/25 10:48:50;;;;;;;0.85;0.30;;;;;;;;;;5035948;28;20048;-67
2021/08/25 10:51:23;;;;;;;1.40;0.30;;;;;;;;;;5042579;28;20045;-67
2021/08/25 10:53:50;;;;;;;6.50;0.67;;;;;;;;;;5035317;28;20034;-68
2021/08/25 10:56:20;;;;;;;0.88;0.20;;;;;;;;;;5024554;28;20041;-68
2021/08/25 10:58:58;;;;;;;0.60;0.20;;;;;;;;;;5034711;28;20466;-68
2021/08/25 11:01:25;;;;;;;0.38;0.15;;;;;;;;;;5043827;28;20037;-68
2021/08/25 11:03:52;;;;;;;1.98;0.30;;;;;;;;;;5035272;28;20406;-67
2021/08/25 11:06:28;;;;;;;0.30;0.20;;;;;;;;;;5039088;28;20039;-67
2021/08/25 11:09:08;;;;;;;1.38;0.20;;;;;;;;;;5034383;28;20097;-67
2021/08/25 11:11:34;;;;;;;0.57;0.10;;;;;;;;;;5043700;28;20102;-67
2021/08/25 11:14:00;;;;;;;2.03;0.22;;;;;;;;;;5034687;28;20056;-68
2021/08/25 11:16:26;;;;;;;0.30;0.10;;;;;;;;;;5020846;28;20057;-68
2021/08/25 11:18:53;;;;;;;0.57;0.20;;;;;;;;;;5033834;28;20115;-68
2021/08/25 11:21:19;;;;;;;0.60;0.20;;;;;;;;;;5039490;28;20047;-68
2021/08/25 11:23:52;;;;;;;0.60;0.10;;;;;;;;;;5033123;28;20041;-68
2021/08/25 11:26:18;;;;;;;1.50;0.20;;;;;;;;;;5027691;28;20037;-68
2021/08/25 11:28:44;;;;;;;0.52;0.10;;;;;;;;;;5030675;28;20156;-68
2021/08/25 11:31:11;;;;;;;1.23;0.20;;;;;;;;;;5040381;28;20052;-68
2021/08/25 11:33:44;;;;;;;1.02;0.20;;;;;;;;;;5015379;28;20048;-68
2021/08/25 11:36:10;;;;;;;0.38;0.10;;;;;;;;;;5038641;28;20479;-68
2021/08/25 11:38:36;;;;;;;0.80;0.15;;;;;;;;;;5037448;28;20045;-68
2021/08/25 11:41:02;;;;;;;0.28;0.10;;;;;;;;;;5042377;28;20485;-68
2021/08/25 11:43:28;;;;;;;2.42;0.20;;;;;;;;;;5037926;28;20057;-68
2021/08/25 11:45:57;;;;;;;0.20;0.00;;;;;;;;;;5034965;28;20117;-68
2021/08/25 11:48:30;;;;;;;0.40;0.10;;;;;;;;;;5022808;28;20081;-68
2021/08/25 11:50:57;;;;;;;0.83;0.10;;;;;;;;;;5036025;28;20092;-68
2021/08/25 11:53:25;;;;;;;0.90;0.20;;;;;;;;;;5035871;28;20045;-68
2021/08/25 11:55:52;;;;;;;1.73;0.20;;;;;;;;;;5018312;28;20147;-68
2021/08/25 11:58:22;;;;;;;0.30;0.08;;;;;;;;;;5035946;28;20037;-68
2021/08/25 12:00:49;;;;;;;0.50;0.10;;;;;;;;;;5030934;28;20059;-68
2021/08/25 12:03:15;;;;;;;0.45;0.10;;;;;;;;;;5035636;28;20041;-68
2021/08/25 12:05:51;;;;;;;0.73;0.20;;;;;;;;;;5031746;28;20041;-68
2021/08/25 12:08:17;;;;;;;0.20;0.05;;;;;;;;;;5037579;28;20664;-68
2021/08/25 12:10:45;;;;;;;0.73;0.10;;;;;;;;;;5016010;28;20055;-68
2021/08/25 12:13:11;;;;;;;0.10;0.03;;;;;;;;;;5038029;28;20052;-68
2021/08/25 12:15:41;;;;;;;1.27;0.20;;;;;;;;;;5035889;28;20047;-68
2021/08/25 12:18:07;;;;;;;0.68;0.10;;;;;;;;;;5041590;28;20041;-68
2021/08/25 12:20:37;;;;;;;0.90;0.10;;;;;;;;;;5031912;28;20107;-70
2021/08/25 12:23:04;;;;;;;0.38;0.10;;;;;;;;;;5036203;28;20051;-70
2021/08/25 12:25:59;;;;;;;0.40;0.20;;;;;;;;;;5018846;28;20055;-70
2021/08/25 12:28:38;;;;;;;0.40;0.20;;;;;;;;;;5004940;28;20080;-70
2021/08/25 12:31:15;;;;;;;1.73;0.38;;;;;;;;;;5016502;28;20107;-70
2021/08/25 12:33:42;;;;;;;0.98;0.20;;;;;;;;;;5022607;28;20056;-70
2021/08/25 12:36:26;;;;;;;1.17;0.40;;;;;;;;;;5014463;28;20124;-68
2021/08/25 12:39:13;;;;;;;0.57;0.20;;;;;;;;;;5024609;28;20053;-66
2021/08/25 12:41:41;;;;;;;1.67;0.35;;;;;;;;;;5033169;28;20041;-67
2021/08/25 12:44:07;;;;;;;1.02;0.30;;;;;;;;;;5039582;28;20056;-67
2021/08/25 12:46:49;;;;;;;0.82;0.32;;;;;;;;;;5041058;28;20632;-67
2021/08/25 12:49:15;;;;;;;0.73;0.30;;;;;;;;;;5042326;28;20067;-67
2021/08/25 12:51:41;;;;;;;1.00;0.20;;;;;;;;;;5035911;28;20065;-67
2021/08/25 12:54:07;;;;;;;1.55;0.22;;;;;;;;;;5039334;28;20037;-67
2021/08/25 12:56:33;;;;;;;1.75;0.10;;;;;;;;;;5035990;28;20999;-67
2021/08/25 12:58:59;;;;;;;1.27;0.20;;;;;;;;;;5026680;28;20049;-67
2021/08/25 13:01:25;;;;;;;0.85;0.15;;;;;;;;;;5043635;28;20037;-69
2021/08/25 13:03:51;;;;;;;0.95;0.30;;;;;;;;;;5024461;28;20053;-69
2021/08/25 13:06:17;;;;;;;0.43;0.17;;;;;;;;;;5041639;28;20125;-70
2021/08/25 13:08:43;;;;;;;0.43;0.20;;;;;;;;;;5035786;28;20048;-69
2021/08/25 13:11:10;;;;;;;1.20;0.25;;;;;;;;;;5039796;28;20032;-69
2021/08/25 13:13:36;;;;;;;2.90;0.77;;;;;;;;;;5033453;28;20049;-69
2021/08/25 13:16:02;;;;;;;1.38;0.32;;;;;;;;;;5041580;28;20033;-69
2021/08/25 13:18:28;;;;;;;0.85;0.20;;;;;;;;;;5038112;28;20508;-68
2021/08/25 13:20:54;;;;;;;2.00;0.20;;;;;;;;;;5035694;28;20417;-68
2021/08/25 13:23:20;;;;;;;1.42;0.13;;;;;;;;;;5032529;28;20045;-69
2021/08/25 13:25:46;;;;;;;0.90;0.20;;;;;;;;;;5017974;28;20060;-69
2021/08/25 13:28:12;;;;;;;2.83;0.35;;;;;;;;;;5034778;28;20063;-69
2021/08/25 13:30:39;;;;;;;0.90;0.20;;;;;;;;;;5022904;28;20122;-69
2021/08/25 13:33:05;;;;;;;1.38;0.13;;;;;;;;;;5031912;28;20498;-69
2021/08/25 13:35:31;;;;;;;2.42;0.13;;;;;;;;;;5034571;28;20045;-69
2021/08/25 13:37:58;;;;;;;1.10;0.20;;;;;;;;;;5010527;28;20248;-69
2021/08/25 13:40:24;;;;;;;1.17;0.30;;;;;;;;;;5041322;28;20041;-69
2021/08/25 13:42:50;;;;;;;0.28;0.10;;;;;;;;;;5019284;28;20052;-69
2021/08/25 13:45:16;;;;;;;1.58;0.20;;;;;;;;;;5020113;28;20049;-68
2021/08/25 13:47:42;;;;;;;0.20;0.10;;;;;;;;;;5023220;28;20045;-69
2021/08/25 13:50:09;;;;;;;1.00;0.10;;;;;;;;;;5033892;28;20140;-69
2021/08/25 13:52:35;;;;;;;1.85;0.20;;;;;;;;;;5024035;28;20393;-69
2021/08/25 13:55:01;;;;;;;0.88;0.15;;;;;;;;;;5032234;28;20048;-69
2021/08/25 13:57:28;;;;;;;0.25;0.10;;;;;;;;;;5044898;28;20049;-69
2021/08/25 13:59:54;;;;;;;0.50;0.03;;;;;;;;;;5033780;28;20056;-69
2021/08/25 14:02:20;;;;;;;1.15;0.30;;;;;;;;;;5020146;28;20056;-69
2021/08/25 14:04:46;;;;;;;0.35;0.20;;;;;;;;;;5031351;28;20099;-69
2021/08/25 14:07:12;;;;;;;0.30;0.10;;;;;;;;;;5022187;28;20049;-69
2021/08/25 14:09:38;;;;;;;1.30;0.35;;;;;;;;;;5033829;28;20053;-69
2021/08/25 14:12:04;;;;;;;1.90;0.45;;;;;;;;;;5023577;28;20151;-69
2021/08/25 14:14:30;;;;;;;1.33;0.45;;;;;;;;;;5035935;28;20508;-69
2021/08/25 14:16:56;;;;;;;1.45;0.57;;;;;;;;;;5023444;28;20072;-69
2021/08/25 14:19:22;;;;;;;1.83;0.45;;;;;;;;;;5039769;28;20053;-69
2021/08/25 14:21:48;;;;;;;2.20;0.50;;;;;;;;;;5015291;28;20050;-69
2021/08/25 14:24:14;;;;;;;0.80;0.40;;;;;;;;;;5038877;28;20065;-68
2021/08/25 14:26:40;;;;;;;1.52;0.43;;;;;;;;;;5032730;28;20055;-67
2021/08/25 14:29:06;;;;;;;1.90;0.60;;;;;;;;;;5044349;28;20041;-68
2021/08/25 14:31:32;;;;;;;1.85;0.50;;;;;;;;;;5015939;28;20083;-67